createdAt,value
2018-08-16T00:03:35.413Z,99.60
2018-08-16T00:08:40.160Z,99.60
2018-08-16T00:13:44.908Z,99.60
2018-08-16T00:18:49.957Z,99.60
2018-08-16T00:23:54.673Z,99.60
2018-08-16T00:28:59.583Z,99.60
2018-08-16T00:34:04.282Z,99.60
2018-08-16T00:39:10.231Z,99.60
2018-08-16T00:44:15.186Z,99.60
2018-08-16T00:49:23.910Z,99.60
2018-08-16T00:54:28.666Z,99.60
2018-08-16T00:59:33.804Z,99.60
2018-08-16T01:04:38.547Z,99.60
2018-08-16T01:09:43.234Z,99.60
2018-08-16T01:14:48.010Z,99.60
2018-08-16T01:19:52.724Z,99.60
2018-08-16T01:24:57.670Z,99.60
2018-08-16T01:30:02.644Z,99.60
2018-08-16T01:35:08.310Z,99.60
2018-08-16T01:40:13.015Z,99.60
2018-08-16T01:45:17.836Z,99.60
2018-08-16T01:50:22.805Z,99.60
2018-08-16T01:55:27.736Z,99.60
2018-08-16T02:00:32.602Z,99.60
2018-08-16T02:05:37.313Z,99.60
2018-08-16T02:10:42.000Z,99.60
2018-08-16T02:16:03.024Z,99.60
2018-08-16T02:21:08.054Z,99.60
2018-08-16T02:26:12.986Z,99.60
2018-08-16T02:31:17.709Z,99.60
2018-08-16T02:36:23.111Z,99.60
2018-08-16T02:41:27.818Z,99.60
2018-08-16T02:46:32.926Z,99.60
2018-08-16T02:51:37.839Z,99.60
2018-08-16T02:56:42.683Z,99.60
2018-08-16T03:01:47.536Z,99.60
2018-08-16T03:06:54.330Z,99.60
2018-08-16T03:11:59.155Z,99.60
2018-08-16T03:17:03.945Z,99.60
2018-08-16T03:22:08.908Z,99.60
2018-08-16T03:27:13.756Z,99.60
2018-08-16T03:32:21.058Z,99.60
2018-08-16T03:37:25.820Z,99.60
2018-08-16T03:42:30.822Z,99.60
2018-08-16T03:47:35.499Z,99.60
2018-08-16T03:52:40.408Z,99.60
2018-08-16T03:57:45.245Z,99.60
2018-08-16T04:02:50.227Z,99.60
2018-08-16T04:07:55.442Z,99.60
2018-08-16T04:13:00.755Z,99.60
2018-08-16T04:18:05.482Z,99.60
2018-08-16T04:23:12.714Z,99.60
2018-08-16T04:28:17.454Z,99.60
2018-08-16T04:33:22.275Z,99.60
2018-08-16T04:38:27.749Z,99.60
2018-08-16T04:43:32.492Z,99.60
2018-08-16T04:48:38.924Z,99.60
2018-08-16T04:53:43.907Z,99.60
2018-08-16T04:58:48.736Z,99.60
2018-08-16T05:03:53.584Z,99.60
2018-08-16T05:08:58.919Z,99.60
2018-08-16T05:14:04.413Z,99.60
2018-08-16T05:19:10.126Z,99.60
2018-08-16T05:24:16.072Z,99.60
2018-08-16T05:29:25.561Z,99.60
2018-08-16T05:34:33.274Z,99.60
2018-08-16T05:39:43.402Z,99.60
2018-08-16T05:44:51.612Z,99.60
2018-08-16T05:49:59.152Z,99.60
2018-08-16T05:55:06.750Z,99.60
2018-08-16T06:00:19.262Z,99.60
2018-08-16T06:05:28.218Z,99.60
2018-08-16T06:10:38.808Z,99.60
2018-08-16T06:15:47.020Z,99.60
2018-08-16T06:20:55.451Z,99.60
2018-08-16T06:26:05.163Z,99.60
2018-08-16T06:31:13.075Z,99.60
2018-08-16T06:36:18.023Z,99.60
2018-08-16T06:41:22.909Z,99.40
2018-08-16T06:46:27.734Z,98.70
2018-08-16T06:51:32.479Z,97.80
2018-08-16T06:56:38.035Z,97.30
2018-08-16T07:01:42.997Z,95.70
2018-08-16T07:06:48.674Z,94.60
2018-08-16T07:12:03.447Z,94.60
2018-08-16T07:17:09.364Z,93.90
2018-08-16T07:22:14.353Z,93.70
2018-08-16T07:27:19.279Z,93.80
2018-08-16T07:32:24.578Z,93.60
2018-08-16T07:37:29.902Z,93.20
2018-08-16T07:42:34.812Z,93.40
2018-08-16T07:47:40.371Z,93.10
2018-08-16T07:52:45.706Z,93.70
2018-08-16T07:57:50.629Z,93.30
2018-08-16T08:02:55.328Z,93.00
2018-08-16T08:08:00.372Z,92.90
2018-08-16T08:13:05.398Z,91.60
2018-08-16T08:18:10.410Z,91.00
2018-08-16T08:23:15.168Z,91.80
2018-08-16T08:28:19.828Z,91.80
2018-08-16T08:33:24.544Z,92.40
2018-08-16T08:38:29.412Z,93.10
2018-08-16T08:43:45.289Z,93.30
2018-08-16T08:48:50.012Z,93.40
2018-08-16T08:55:03.768Z,93.20
2018-08-16T09:00:08.829Z,93.90
2018-08-16T09:05:13.639Z,93.60
2018-08-16T09:10:55.177Z,92.90
2018-08-16T09:16:00.946Z,92.80
2018-08-16T09:21:05.974Z,92.30
2018-08-16T09:26:16.455Z,92.10
2018-08-16T09:31:32.498Z,92.60
2018-08-16T09:36:37.697Z,92.50
2018-08-16T09:41:42.681Z,91.70
2018-08-16T09:47:08.024Z,92.00
2018-08-16T09:52:13.557Z,89.70
2018-08-16T09:57:18.641Z,89.00
2018-08-16T10:02:23.457Z,88.00
2018-08-16T10:07:28.328Z,87.30
2018-08-16T10:12:33.667Z,88.20
2018-08-16T10:17:38.620Z,88.70
2018-08-16T10:22:43.547Z,88.20
2018-08-16T10:27:48.936Z,88.00
2018-08-16T10:32:53.916Z,87.20
2018-08-16T10:37:58.763Z,86.10
2018-08-16T10:43:03.590Z,87.10
2018-08-16T10:48:09.045Z,86.10
2018-08-16T10:53:13.845Z,84.00
2018-08-16T10:58:18.591Z,83.20
2018-08-16T11:03:24.430Z,83.00
2018-08-16T11:08:29.649Z,80.80
2018-08-16T11:13:34.689Z,81.00
2018-08-16T11:18:39.734Z,80.20
2018-08-16T11:23:44.435Z,79.00
2018-08-16T11:28:49.261Z,79.30
2018-08-16T11:33:54.372Z,78.90
2018-08-16T11:38:58.933Z,78.20
2018-08-16T11:44:04.269Z,76.00
2018-08-16T11:49:09.572Z,74.60
2018-08-16T11:54:15.269Z,73.90
2018-08-16T11:59:21.635Z,70.10
2018-08-16T12:04:26.409Z,69.00
2018-08-16T12:09:31.234Z,67.50
2018-08-16T12:14:36.239Z,66.30
2018-08-16T12:19:41.905Z,64.10
2018-08-16T12:24:46.806Z,64.40
2018-08-16T12:29:52.141Z,63.90
2018-08-16T12:35:03.344Z,66.60
2018-08-16T12:40:08.808Z,65.70
2018-08-16T12:45:13.845Z,65.00
2018-08-16T12:50:19.211Z,65.70
2018-08-16T12:55:24.429Z,63.90
2018-08-16T13:00:29.351Z,63.50
2018-08-16T13:05:34.129Z,60.90
2018-08-16T13:10:39.091Z,59.70
2018-08-16T13:15:44.865Z,58.90
2018-08-16T13:20:49.831Z,59.60
2018-08-16T13:25:54.795Z,59.10
2018-08-16T13:31:00.452Z,57.60
2018-08-16T13:36:05.312Z,57.60
2018-08-16T13:41:10.007Z,57.60
2018-08-16T13:46:14.866Z,56.60
2018-08-16T13:51:19.682Z,57.10
2018-08-16T13:56:24.683Z,57.10
2018-08-16T14:01:46.619Z,57.60
2018-08-16T14:06:51.433Z,58.20
2018-08-16T14:11:57.096Z,57.20
2018-08-16T14:17:01.904Z,57.80
2018-08-16T14:22:07.060Z,58.20
2018-08-16T14:27:12.176Z,58.30
2018-08-16T14:32:18.690Z,59.40
2018-08-16T14:37:24.387Z,59.10
2018-08-16T14:42:29.742Z,58.40
2018-08-16T14:47:35.890Z,57.80
2018-08-16T14:52:40.761Z,56.00
2018-08-16T14:57:45.625Z,56.60
2018-08-16T15:02:51.072Z,55.20
2018-08-16T15:07:55.685Z,54.50
2018-08-16T15:13:01.436Z,54.80
2018-08-16T15:18:06.543Z,54.90
2018-08-16T15:23:11.185Z,55.90
2018-08-16T15:28:16.096Z,56.00
2018-08-16T15:33:20.827Z,56.80
2018-08-16T15:38:25.617Z,56.10
2018-08-16T15:43:30.425Z,56.40
2018-08-16T15:48:35.129Z,56.90
2018-08-16T15:53:40.577Z,56.90
2018-08-16T15:58:45.847Z,57.40
2018-08-16T16:03:50.577Z,57.50
2018-08-16T16:08:55.544Z,58.70
2018-08-16T16:14:01.013Z,58.70
2018-08-16T16:19:05.790Z,59.10
2018-08-16T16:24:11.384Z,58.40
2018-08-16T16:29:16.100Z,57.80
2018-08-16T16:34:20.981Z,57.50
2018-08-16T16:39:25.728Z,58.90
2018-08-16T16:44:30.714Z,59.50
2018-08-16T16:49:35.911Z,58.50
2018-08-16T16:54:40.809Z,58.80
2018-08-16T16:59:47.965Z,58.90
2018-08-16T17:04:53.071Z,59.10
2018-08-16T17:09:57.962Z,58.60
2018-08-16T17:15:02.734Z,59.10
2018-08-16T17:20:08.002Z,59.20
2018-08-16T17:25:12.734Z,61.30
2018-08-16T17:30:18.595Z,66.30
2018-08-16T17:35:23.571Z,69.90
2018-08-16T17:40:28.436Z,70.00
2018-08-16T17:45:33.808Z,70.30
2018-08-16T17:50:38.460Z,71.30
2018-08-16T17:55:43.149Z,70.60
2018-08-16T18:00:48.446Z,72.60
2018-08-16T18:05:53.240Z,73.60
2018-08-16T18:10:57.988Z,77.80
2018-08-16T18:16:02.727Z,83.60
2018-08-16T18:21:07.689Z,83.50
2018-08-16T18:26:12.585Z,84.40
2018-08-16T18:31:18.303Z,85.50
2018-08-16T18:36:23.078Z,86.40
2018-08-16T18:41:27.722Z,87.10
2018-08-16T18:46:33.347Z,88.10
2018-08-16T18:51:38.962Z,88.20
2018-08-16T18:56:43.901Z,86.50
2018-08-16T19:01:49.895Z,84.90
2018-08-16T19:06:58.370Z,84.90
2018-08-16T19:12:03.563Z,86.50
2018-08-16T19:17:09.096Z,86.80
2018-08-16T19:22:14.209Z,87.40
2018-08-16T19:27:19.176Z,88.20
2018-08-16T19:32:23.796Z,89.20
2018-08-16T19:37:29.228Z,90.40
2018-08-16T19:42:35.005Z,91.20
2018-08-16T19:47:40.496Z,91.50
2018-08-16T19:52:47.969Z,92.20
2018-08-16T19:57:53.316Z,93.40
2018-08-16T20:02:59.792Z,93.70
2018-08-16T20:08:04.544Z,93.30
2018-08-16T20:13:09.304Z,92.20
2018-08-16T20:18:18.541Z,93.50
2018-08-16T20:23:24.510Z,95.30
2018-08-16T20:28:29.811Z,96.30
2018-08-16T20:33:34.880Z,97.20
2018-08-16T20:38:39.539Z,97.60
2018-08-16T20:43:44.625Z,96.80
2018-08-16T20:48:49.577Z,96.00
2018-08-16T20:53:54.430Z,95.20
2018-08-16T20:58:59.261Z,94.90
2018-08-16T21:04:04.117Z,94.70
2018-08-16T21:09:10.140Z,94.80
2018-08-16T21:14:15.837Z,95.60
2018-08-16T21:19:20.592Z,96.20
2018-08-16T21:24:26.187Z,97.10
2018-08-16T21:29:31.160Z,98.20
2018-08-16T21:34:35.937Z,98.90
2018-08-16T21:39:40.527Z,98.90
2018-08-16T21:44:45.353Z,98.80
2018-08-16T21:49:50.109Z,98.80
2018-08-16T21:54:54.728Z,99.30
2018-08-16T21:59:59.550Z,99.60
2018-08-16T22:05:04.698Z,99.60
2018-08-16T22:10:09.375Z,99.60
2018-08-16T22:15:14.680Z,99.60
2018-08-16T22:20:19.649Z,99.60
2018-08-16T22:25:25.710Z,99.60
2018-08-16T22:30:30.660Z,99.60
2018-08-16T22:35:35.148Z,99.60
2018-08-16T22:40:40.018Z,99.60
2018-08-16T22:45:45.178Z,99.60
2018-08-16T22:50:50.015Z,99.60
2018-08-16T22:55:54.706Z,99.60
2018-08-16T23:00:59.585Z,99.60
2018-08-16T23:06:04.272Z,99.60
2018-08-16T23:11:09.752Z,99.60
2018-08-16T23:16:14.462Z,99.60
2018-08-16T23:21:18.963Z,99.60
2018-08-16T23:26:24.394Z,99.40
2018-08-16T23:31:29.294Z,99.00
2018-08-16T23:36:33.949Z,98.90
2018-08-16T23:41:38.789Z,99.60
2018-08-16T23:46:44.294Z,99.60
2018-08-16T23:51:49.070Z,99.60
2018-08-16T23:56:53.913Z,99.60
